createdAt,value
2018-01-30T00:00:38.292Z,101467.08
2018-01-30T00:03:07.517Z,101464.25
2018-01-30T00:05:36.758Z,101462.22
2018-01-30T00:08:05.982Z,101462.19
2018-01-30T00:10:35.205Z,101461.11
2018-01-30T00:13:04.402Z,101460.30
2018-01-30T00:15:33.602Z,101467.97
2018-01-30T00:18:02.818Z,101464.63
2018-01-30T00:20:32.016Z,101474.59
2018-01-30T00:23:01.310Z,101483.77
2018-01-30T00:25:30.635Z,101479.89
2018-01-30T00:28:00.591Z,101490.52
2018-01-30T00:30:29.775Z,101494.00
2018-01-30T00:32:59.047Z,101496.97
2018-01-30T00:35:29.019Z,101495.92
2018-01-30T00:37:58.346Z,101498.32
2018-01-30T00:40:28.323Z,101501.53
2018-01-30T00:42:57.534Z,101498.96
2018-01-30T00:45:26.709Z,101503.28
2018-01-30T00:47:56.029Z,101501.48
2018-01-30T00:50:25.227Z,101502.56
2018-01-30T00:52:54.403Z,101497.44
2018-01-30T00:55:23.602Z,101507.33
2018-01-30T00:57:54.381Z,101514.31
2018-01-30T01:00:23.776Z,101511.92
2018-01-30T01:02:53.088Z,101517.72
2018-01-30T01:05:22.378Z,101515.26
2018-01-30T01:07:52.347Z,101512.83
2018-01-30T01:10:21.563Z,101512.83
2018-01-30T01:12:50.824Z,101520.52
2018-01-30T01:15:20.890Z,101520.66
2018-01-30T01:17:50.095Z,101514.72
2018-01-30T01:20:19.311Z,101516.64
2018-01-30T01:22:49.362Z,101516.11
2018-01-30T01:25:18.894Z,101518.67
2018-01-30T01:27:48.113Z,101517.02
2018-01-30T01:30:17.297Z,101519.58
2018-01-30T01:32:46.667Z,101523.77
2018-01-30T01:35:15.871Z,101525.52
2018-01-30T01:37:45.093Z,101520.52
2018-01-30T01:40:15.273Z,101523.76
2018-01-30T01:42:46.182Z,101525.20
2018-01-30T01:45:16.150Z,101517.74
2018-01-30T01:47:45.418Z,101515.17
2018-01-30T01:50:14.723Z,101515.58
2018-01-30T01:52:43.931Z,101519.62
2018-01-30T01:55:13.182Z,101517.73
2018-01-30T01:57:42.365Z,101517.02
2018-01-30T02:00:11.549Z,101510.50
2018-01-30T02:02:40.766Z,101508.70
2018-01-30T02:05:10.826Z,101509.09
2018-01-30T02:07:40.098Z,101511.62
2018-01-30T02:10:10.064Z,101507.66
2018-01-30T02:12:39.278Z,101501.45
2018-01-30T02:15:08.502Z,101498.34
2018-01-30T02:17:37.728Z,101492.81
2018-01-30T02:20:06.894Z,101490.61
2018-01-30T02:22:36.090Z,101487.77
2018-01-30T02:25:05.296Z,101485.97
2018-01-30T02:27:35.310Z,101475.80
2018-01-30T02:30:04.577Z,101480.87
2018-01-30T02:32:34.586Z,101472.52
2018-01-30T02:35:03.837Z,101474.12
2018-01-30T02:37:33.834Z,101481.48
2018-01-30T02:40:03.109Z,101483.69
2018-01-30T02:42:32.342Z,101477.41
2018-01-30T02:45:01.583Z,101472.51
2018-01-30T02:47:30.869Z,101476.95
2018-01-30T02:50:00.069Z,101474.91
2018-01-30T02:52:29.311Z,101480.27
2018-01-30T02:54:58.540Z,101477.55
2018-01-30T02:57:28.530Z,101485.78
2018-01-30T02:59:57.745Z,101483.97
2018-01-30T03:02:27.017Z,101486.38
2018-01-30T03:04:56.260Z,101482.33
2018-01-30T03:07:26.219Z,101479.10
2018-01-30T03:09:55.417Z,101478.30
2018-01-30T03:12:24.631Z,101481.07
2018-01-30T03:14:55.355Z,101490.63
2018-01-30T03:17:24.590Z,101486.58
2018-01-30T03:19:54.581Z,101491.81
2018-01-30T03:22:23.839Z,101485.09
2018-01-30T03:24:53.074Z,101483.61
2018-01-30T03:27:22.296Z,101483.43
2018-01-30T03:29:51.520Z,101489.08
2018-01-30T03:32:20.790Z,101486.35
2018-01-30T03:34:50.022Z,101487.57
2018-01-30T03:37:19.274Z,101491.82
2018-01-30T03:39:48.490Z,101489.39
2018-01-30T03:42:18.479Z,101498.27
2018-01-30T03:44:47.866Z,101505.22
2018-01-30T03:47:17.110Z,101503.21
2018-01-30T03:49:46.447Z,101506.75
2018-01-30T03:52:15.666Z,101506.98
2018-01-30T03:54:44.880Z,101516.13
2018-01-30T03:57:14.266Z,101513.03
2018-01-30T03:59:43.468Z,101513.56
2018-01-30T04:02:12.669Z,101523.38
2018-01-30T04:04:41.882Z,101521.96
2018-01-30T04:07:11.882Z,101512.66
2018-01-30T04:09:41.897Z,101526.26
2018-01-30T04:12:12.710Z,101516.77
2018-01-30T04:14:41.867Z,101517.55
2018-01-30T04:17:11.195Z,101521.31
2018-01-30T04:19:40.426Z,101519.39
2018-01-30T04:22:09.635Z,101519.23
2018-01-30T04:24:38.841Z,101525.81
2018-01-30T04:27:08.811Z,101528.97
2018-01-30T04:29:38.022Z,101527.34
2018-01-30T04:32:07.256Z,101528.77
2018-01-30T04:34:37.217Z,101526.28
2018-01-30T04:37:06.442Z,101524.40
2018-01-30T04:39:35.669Z,101518.08
2018-01-30T04:42:05.166Z,101528.95
2018-01-30T04:44:34.412Z,101530.92
2018-01-30T04:47:03.662Z,101518.02
2018-01-30T04:49:33.677Z,101511.97
2018-01-30T04:52:03.652Z,101511.84
2018-01-30T04:54:32.876Z,101513.47
2018-01-30T04:57:02.092Z,101511.91
2018-01-30T04:59:32.100Z,101509.42
2018-01-30T05:02:01.369Z,101504.91
2018-01-30T05:04:30.620Z,101513.94
2018-01-30T05:06:59.883Z,101514.09
2018-01-30T05:09:29.136Z,101501.62
2018-01-30T05:11:58.475Z,101498.66
2018-01-30T05:14:27.702Z,101506.53
2018-01-30T05:16:58.411Z,101503.58
2018-01-30T05:19:27.694Z,101514.36
2018-01-30T05:21:57.095Z,101524.06
2018-01-30T05:24:26.291Z,101529.02
2018-01-30T05:26:55.603Z,101522.29
2018-01-30T05:29:24.809Z,101524.91
2018-01-30T05:31:54.060Z,101530.04
2018-01-30T05:34:23.334Z,101536.17
2018-01-30T05:36:53.354Z,101528.97
2018-01-30T05:39:22.579Z,101525.48
2018-01-30T05:41:51.791Z,101529.31
2018-01-30T05:44:21.084Z,101538.47
2018-01-30T05:46:50.386Z,101540.02
2018-01-30T05:49:19.601Z,101530.66
2018-01-30T05:51:48.956Z,101532.14
2018-01-30T05:54:18.163Z,101538.81
2018-01-30T05:56:47.376Z,101541.86
2018-01-30T05:59:16.705Z,101546.16
2018-01-30T06:01:45.940Z,101541.18
2018-01-30T06:04:15.910Z,101546.74
2018-01-30T06:06:45.120Z,101547.16
2018-01-30T06:09:14.360Z,101560.08
2018-01-30T06:11:43.558Z,101557.02
2018-01-30T06:14:12.771Z,101542.47
2018-01-30T06:16:42.002Z,101531.01
2018-01-30T06:19:11.199Z,101542.58
2018-01-30T06:21:40.406Z,101548.11
2018-01-30T06:24:09.656Z,101549.20
2018-01-30T06:26:38.923Z,101539.09
2018-01-30T06:29:08.095Z,101545.56
2018-01-30T06:31:37.334Z,101544.07
2018-01-30T06:34:07.340Z,101545.55
2018-01-30T06:36:37.313Z,101548.64
2018-01-30T06:39:06.507Z,101537.36
2018-01-30T06:41:35.722Z,101542.59
2018-01-30T06:44:04.935Z,101550.03
2018-01-30T06:46:34.188Z,101545.05
2018-01-30T06:49:07.191Z,101546.83
2018-01-30T06:51:37.312Z,101545.63
2018-01-30T06:54:06.631Z,101537.51
2018-01-30T06:56:36.676Z,101539.94
2018-01-30T06:59:05.908Z,101545.33
2018-01-30T07:01:35.157Z,101535.23
2018-01-30T07:04:04.334Z,101531.48
2018-01-30T07:06:34.368Z,101540.62
2018-01-30T07:09:04.402Z,101541.86
2018-01-30T07:11:34.371Z,101535.11
2018-01-30T07:14:03.611Z,101543.20
2018-01-30T07:16:33.588Z,101545.27
2018-01-30T07:19:02.811Z,101544.20
2018-01-30T07:21:32.790Z,101539.75
2018-01-30T07:24:02.014Z,101550.25
2018-01-30T07:26:31.220Z,101558.87
2018-01-30T07:29:01.239Z,101556.86
2018-01-30T07:31:31.235Z,101554.70
2018-01-30T07:34:00.499Z,101553.09
2018-01-30T07:36:29.699Z,101555.27
2018-01-30T07:38:59.926Z,101551.50
2018-01-30T07:41:29.210Z,101556.27
2018-01-30T07:43:59.189Z,101554.91
2018-01-30T07:46:29.393Z,101556.27
2018-01-30T07:48:58.611Z,101560.30
2018-01-30T07:51:28.637Z,101562.39
2018-01-30T07:53:58.758Z,101566.43
2018-01-30T07:56:28.730Z,101579.47
2018-01-30T07:58:58.023Z,101574.77
2018-01-30T08:01:27.264Z,101581.56
2018-01-30T08:03:56.614Z,101584.78
2018-01-30T08:06:25.841Z,101575.77
2018-01-30T08:08:55.208Z,101577.66
2018-01-30T08:11:24.443Z,101580.21
2018-01-30T08:13:53.676Z,101576.98
2018-01-30T08:16:22.979Z,101578.35
2018-01-30T08:18:52.923Z,101581.76
2018-01-30T08:21:22.964Z,101577.36
2018-01-30T08:23:52.166Z,101572.11
2018-01-30T08:26:21.354Z,101578.36
2018-01-30T08:28:50.590Z,101581.27
2018-01-30T08:31:19.983Z,101578.90
2018-01-30T08:33:49.591Z,101575.69
2018-01-30T08:36:19.567Z,101576.68
2018-01-30T08:38:48.800Z,101580.61
2018-01-30T08:41:18.814Z,101585.61
2018-01-30T08:43:48.018Z,101584.20
2018-01-30T08:46:17.495Z,101577.13
2018-01-30T08:48:46.676Z,101585.20
2018-01-30T08:51:15.890Z,101580.12
2018-01-30T08:53:45.188Z,101582.17
2018-01-30T08:56:14.426Z,101581.33
2018-01-30T08:58:43.665Z,101576.39
2018-01-30T09:01:12.958Z,101577.45
2018-01-30T09:03:42.163Z,101575.50
2018-01-30T09:06:11.419Z,101577.59
2018-01-30T09:08:40.603Z,101575.50
2018-01-30T09:11:10.594Z,101579.95
2018-01-30T09:13:39.797Z,101567.34
2018-01-30T09:16:09.029Z,101576.77
2018-01-30T09:18:38.250Z,101581.65
2018-01-30T09:21:07.521Z,101573.60
2018-01-30T09:23:36.728Z,101575.23
2018-01-30T09:26:05.960Z,101583.25
2018-01-30T09:28:35.410Z,101578.72
2018-01-30T09:31:04.940Z,101585.65
2018-01-30T09:33:34.139Z,101588.48
2018-01-30T09:36:03.398Z,101576.88
2018-01-30T09:38:33.399Z,101577.92
2018-01-30T09:41:02.614Z,101582.92
2018-01-30T09:43:32.608Z,101576.99
2018-01-30T09:46:01.858Z,101577.97
2018-01-30T09:48:31.099Z,101568.53
2018-01-30T09:51:00.307Z,101569.38
2018-01-30T09:53:29.530Z,101579.37
2018-01-30T09:55:59.514Z,101573.21
2018-01-30T09:58:28.788Z,101564.03
2018-01-30T10:00:58.808Z,101565.39
2018-01-30T10:03:28.147Z,101564.30
2018-01-30T10:05:57.370Z,101565.79
2018-01-30T10:08:26.602Z,101574.06
2018-01-30T10:10:55.855Z,101567.99
2018-01-30T10:13:25.262Z,101564.25
2018-01-30T10:15:54.476Z,101575.15
2018-01-30T10:18:23.691Z,101567.28
2018-01-30T10:20:52.903Z,101572.45
2018-01-30T10:23:22.923Z,101572.72
2018-01-30T10:25:52.910Z,101573.03
2018-01-30T10:28:22.197Z,101575.90
2018-01-30T10:30:51.466Z,101574.22
2018-01-30T10:33:21.722Z,101575.47
2018-01-30T10:35:51.326Z,101577.66
2018-01-30T10:38:20.521Z,101583.53
2018-01-30T10:40:49.732Z,101579.37
2018-01-30T10:43:18.950Z,101578.45
2018-01-30T10:45:48.183Z,101584.66
2018-01-30T10:48:17.398Z,101579.80
2018-01-30T10:50:46.595Z,101572.25
2018-01-30T10:53:16.610Z,101570.36
2018-01-30T10:55:45.846Z,101575.09
2018-01-30T10:58:15.150Z,101573.89
2018-01-30T11:00:44.399Z,101563.50
2018-01-30T11:03:14.502Z,101564.31
2018-01-30T11:05:45.458Z,101559.59
2018-01-30T11:08:15.592Z,101554.59
2018-01-30T11:10:44.822Z,101564.30
2018-01-30T11:13:14.172Z,101552.13
2018-01-30T11:15:43.847Z,101558.19
2018-01-30T11:18:13.237Z,101554.54
2018-01-30T11:20:42.497Z,101552.94
2018-01-30T11:23:11.723Z,101550.65
2018-01-30T11:25:41.011Z,101560.00
2018-01-30T11:28:10.299Z,101556.48
2018-01-30T11:30:40.996Z,101554.46
2018-01-30T11:33:10.284Z,101558.52
2018-01-30T11:35:39.607Z,101548.52
2018-01-30T11:38:08.865Z,101544.21
2018-01-30T11:40:38.172Z,101538.79
2018-01-30T11:43:07.363Z,101539.20
2018-01-30T11:45:36.620Z,101538.13
2018-01-30T11:48:05.996Z,101537.98
2018-01-30T11:50:35.975Z,101544.45
2018-01-30T11:53:05.241Z,101541.22
2018-01-30T11:55:35.249Z,101535.67
2018-01-30T11:58:04.579Z,101539.73
2018-01-30T12:00:34.089Z,101540.39
2018-01-30T12:03:03.320Z,101533.49
2018-01-30T12:05:34.159Z,101538.25
2018-01-30T12:08:03.593Z,101535.69
2018-01-30T12:10:32.898Z,101528.36
2018-01-30T12:13:02.135Z,101521.75
2018-01-30T12:15:31.376Z,101518.63
2018-01-30T12:18:01.466Z,101505.09
2018-01-30T12:20:30.680Z,101508.49
2018-01-30T12:22:59.993Z,101504.72
2018-01-30T12:25:29.225Z,101504.70
2018-01-30T12:27:58.482Z,101501.85
2018-01-30T12:30:28.497Z,101503.61
2018-01-30T12:32:57.798Z,101494.94
2018-01-30T12:35:27.857Z,101496.95
2018-01-30T12:37:57.091Z,101490.44
2018-01-30T12:40:26.299Z,101482.33
2018-01-30T12:42:55.666Z,101479.91
2018-01-30T12:45:24.854Z,101473.55
2018-01-30T12:47:54.064Z,101473.95
2018-01-30T12:50:23.600Z,101467.34
2018-01-30T12:52:52.842Z,101461.27
2018-01-30T12:55:22.067Z,101458.56
2018-01-30T12:57:51.369Z,101451.53
2018-01-30T13:00:20.619Z,101448.54
2018-01-30T13:02:49.839Z,101447.86
2018-01-30T13:05:19.107Z,101446.36
2018-01-30T13:07:49.064Z,101436.48
2018-01-30T13:10:18.311Z,101428.52
2018-01-30T13:12:47.597Z,101426.09
2018-01-30T13:15:16.866Z,101420.81
2018-01-30T13:17:46.094Z,101423.13
2018-01-30T13:20:15.332Z,101429.33
2018-01-30T13:22:44.570Z,101424.33
2018-01-30T13:25:13.792Z,101422.84
2018-01-30T13:27:43.016Z,101417.98
2018-01-30T13:30:13.239Z,101419.30
2018-01-30T13:32:43.422Z,101416.05
2018-01-30T13:35:12.654Z,101405.48
2018-01-30T13:37:41.867Z,101397.77
2018-01-30T13:40:11.078Z,101392.66
2018-01-30T13:42:40.306Z,101387.80
2018-01-30T13:45:11.046Z,101385.09
2018-01-30T13:47:42.032Z,101386.42
2018-01-30T13:50:11.254Z,101382.23
2018-01-30T13:52:40.478Z,101382.38
2018-01-30T13:55:12.074Z,101383.47
2018-01-30T13:57:41.329Z,101374.70
2018-01-30T14:00:10.743Z,101375.94
2018-01-30T14:02:39.975Z,101382.42
2018-01-30T14:05:09.979Z,101373.62
2018-01-30T14:07:39.941Z,101369.69
2018-01-30T14:10:09.213Z,101367.28
2018-01-30T14:12:38.412Z,101373.78
2018-01-30T14:15:07.656Z,101370.93
2018-01-30T14:17:36.874Z,101362.28
2018-01-30T14:20:06.893Z,101356.20
2018-01-30T14:22:37.643Z,101357.55
2018-01-30T14:25:06.880Z,101350.52
2018-01-30T14:27:36.131Z,101344.56
2018-01-30T14:30:06.123Z,101341.19
2018-01-30T14:32:36.887Z,101334.27
2018-01-30T14:35:06.914Z,101338.61
2018-01-30T14:37:36.880Z,101329.45
2018-01-30T14:40:06.905Z,101325.66
2018-01-30T14:42:36.125Z,101328.66
2018-01-30T14:45:06.132Z,101332.69
2018-01-30T14:47:36.142Z,101326.47
2018-01-30T14:50:05.336Z,101330.55
2018-01-30T14:52:35.317Z,101320.55
2018-01-30T14:55:04.621Z,101318.80
2018-01-30T14:57:33.960Z,101323.52
2018-01-30T15:00:03.142Z,101322.45
2018-01-30T15:02:32.378Z,101310.43
2018-01-30T15:05:02.351Z,101306.11
2018-01-30T15:07:31.662Z,101310.83
2018-01-30T15:10:00.871Z,101301.91
2018-01-30T15:12:30.086Z,101300.95
2018-01-30T15:14:59.321Z,101299.21
2018-01-30T15:17:28.557Z,101298.53
2018-01-30T15:19:58.582Z,101291.65
2018-01-30T15:22:28.582Z,101290.83
2018-01-30T15:24:57.828Z,101289.47
2018-01-30T15:27:27.046Z,101287.72
2018-01-30T15:29:56.294Z,101283.93
2018-01-30T15:32:25.551Z,101280.16
2018-01-30T15:34:54.817Z,101282.58
2018-01-30T15:37:24.021Z,101279.75
2018-01-30T15:39:53.279Z,101276.25
2018-01-30T15:42:22.492Z,101269.48
2018-01-30T15:44:51.734Z,101265.98
2018-01-30T15:47:20.975Z,101255.03
2018-01-30T15:49:50.235Z,101254.08
2018-01-30T15:52:19.449Z,101253.97
2018-01-30T15:54:48.690Z,101251.81
2018-01-30T15:57:18.178Z,101244.80
2018-01-30T15:59:47.426Z,101241.80
2018-01-30T16:02:16.672Z,101239.52
2018-01-30T16:04:46.704Z,101233.56
2018-01-30T16:07:16.660Z,101220.87
2018-01-30T16:09:45.903Z,101219.80
2018-01-30T16:12:15.152Z,101218.30
2018-01-30T16:14:44.346Z,101213.86
2018-01-30T16:17:13.597Z,101214.39
2018-01-30T16:19:43.587Z,101211.38
2018-01-30T16:22:12.826Z,101214.62
2018-01-30T16:24:42.040Z,101208.42
2018-01-30T16:27:12.014Z,101208.81
2018-01-30T16:29:41.211Z,101204.45
2018-01-30T16:32:12.056Z,101208.38
2018-01-30T16:34:42.075Z,101199.85
2018-01-30T16:37:12.095Z,101194.44
2018-01-30T16:39:42.080Z,101193.34
2018-01-30T16:42:11.290Z,101182.27
2018-01-30T16:44:40.539Z,101178.60
2018-01-30T16:47:09.757Z,101174.47
2018-01-30T16:49:40.112Z,101176.73
2018-01-30T16:52:09.337Z,101169.19
2018-01-30T16:54:39.320Z,101155.55
2018-01-30T16:57:08.535Z,101164.38
2018-01-30T16:59:38.546Z,101158.48
2018-01-30T17:02:07.815Z,101160.61
2018-01-30T17:04:37.151Z,101155.48
2018-01-30T17:07:07.145Z,101150.47
2018-01-30T17:09:36.383Z,101149.53
2018-01-30T17:12:05.634Z,101137.13
2018-01-30T17:14:34.899Z,101134.55
2018-01-30T17:17:04.115Z,101131.04
2018-01-30T17:19:33.566Z,101132.48
2018-01-30T17:22:03.789Z,101134.59
2018-01-30T17:24:33.755Z,101136.89
2018-01-30T17:27:03.324Z,101139.31
2018-01-30T17:29:32.632Z,101136.22
2018-01-30T17:32:02.623Z,101133.93
2018-01-30T17:34:32.630Z,101128.14
2018-01-30T17:37:01.885Z,101127.03
2018-01-30T17:39:31.126Z,101122.67
2018-01-30T17:42:00.366Z,101120.38
2018-01-30T17:44:29.577Z,101113.34
2018-01-30T17:46:58.841Z,101104.33
2018-01-30T17:49:28.133Z,101092.22
2018-01-30T17:51:57.383Z,101095.94
2018-01-30T17:54:26.579Z,101092.22
2018-01-30T17:56:55.816Z,101090.38
2018-01-30T17:59:25.799Z,101093.60
2018-01-30T18:01:55.010Z,101085.67
2018-01-30T18:04:24.227Z,101082.00
2018-01-30T18:06:54.260Z,101080.78
2018-01-30T18:09:24.451Z,101081.09
2018-01-30T18:11:53.808Z,101071.23
2018-01-30T18:14:23.016Z,101062.09
2018-01-30T18:16:52.256Z,101066.25
2018-01-30T18:19:22.258Z,101057.16
2018-01-30T18:21:51.588Z,101058.00
2018-01-30T18:24:20.820Z,101054.05
2018-01-30T18:26:50.032Z,101053.47
2018-01-30T18:29:19.278Z,101046.88
2018-01-30T18:31:49.282Z,101051.27
2018-01-30T18:34:19.325Z,101048.67
2018-01-30T18:36:48.571Z,101049.69
2018-01-30T18:39:17.830Z,101035.85
2018-01-30T18:41:47.074Z,101039.34
2018-01-30T18:44:16.352Z,101040.67
2018-01-30T18:46:45.550Z,101042.30
2018-01-30T18:49:14.758Z,101036.77
2018-01-30T18:51:44.059Z,101035.80
2018-01-30T18:54:13.298Z,101028.53
2018-01-30T18:56:42.555Z,101021.55
2018-01-30T18:59:11.809Z,101019.38
2018-01-30T19:01:41.072Z,101013.95
2018-01-30T19:04:10.282Z,101019.56
2018-01-30T19:06:41.015Z,101016.33
2018-01-30T19:09:11.087Z,101011.62
2018-01-30T19:11:40.350Z,101010.96
2018-01-30T19:14:09.629Z,101009.25
2018-01-30T19:16:39.635Z,100999.13
2018-01-30T19:19:09.623Z,100998.32
2018-01-30T19:21:39.299Z,100996.03
2018-01-30T19:24:09.312Z,100992.14
2018-01-30T19:26:38.589Z,100987.30
2018-01-30T19:29:08.615Z,100975.73
2018-01-30T19:31:38.675Z,100977.34
2018-01-30T19:34:07.914Z,100976.67
2018-01-30T19:36:37.899Z,100974.39
2018-01-30T19:39:07.180Z,100976.02
2018-01-30T19:41:36.417Z,100967.45
2018-01-30T19:44:06.427Z,100967.45
2018-01-30T19:46:35.670Z,100962.88
2018-01-30T19:49:04.906Z,100950.16
2018-01-30T19:51:34.285Z,100955.27
2018-01-30T19:54:03.560Z,100949.39
2018-01-30T19:56:32.812Z,100946.57
2018-01-30T19:59:02.063Z,100940.56
2018-01-30T20:01:31.318Z,100930.92
2018-01-30T20:04:00.603Z,100935.35
2018-01-30T20:06:29.904Z,100922.88
2018-01-30T20:08:59.210Z,100922.04
2018-01-30T20:11:28.743Z,100918.31
2018-01-30T20:13:58.727Z,100900.59
2018-01-30T20:16:28.252Z,100912.59
2018-01-30T20:18:58.395Z,100919.58
2018-01-30T20:21:27.705Z,100908.82
2018-01-30T20:23:57.812Z,100909.36
2018-01-30T20:26:32.570Z,100900.21
2018-01-30T20:29:02.515Z,100897.39
2018-01-30T20:31:32.711Z,100893.89
2018-01-30T20:34:02.696Z,100896.04
2018-01-30T20:36:32.087Z,100886.48
2018-01-30T20:39:01.313Z,100876.70
2018-01-30T20:41:30.555Z,100874.95
2018-01-30T20:43:59.822Z,100871.85
2018-01-30T20:46:29.024Z,100862.86
2018-01-30T20:48:58.285Z,100856.96
2018-01-30T20:51:28.277Z,100854.13
2018-01-30T20:53:58.306Z,100850.24
2018-01-30T20:56:28.339Z,100847.41
2018-01-30T20:58:57.569Z,100840.67
2018-01-30T21:01:26.831Z,100830.31
2018-01-30T21:03:56.158Z,100824.66
2018-01-30T21:06:25.367Z,100820.90
2018-01-30T21:08:54.604Z,100814.31
2018-01-30T21:11:24.623Z,100816.20
2018-01-30T21:13:54.633Z,100809.62
2018-01-30T21:16:24.614Z,100808.79
2018-01-30T21:18:53.896Z,100808.39
2018-01-30T21:21:23.230Z,100804.77
2018-01-30T21:23:52.721Z,100800.32
2018-01-30T21:26:22.463Z,100798.97
2018-01-30T21:28:51.670Z,100789.70
2018-01-30T21:31:20.927Z,100783.48
2018-01-30T21:33:50.134Z,100778.25
2018-01-30T21:36:19.366Z,100777.43
2018-01-30T21:38:49.523Z,100773.41
2018-01-30T21:41:18.750Z,100772.71
2018-01-30T21:43:47.967Z,100771.11
2018-01-30T21:46:17.200Z,100768.14
2018-01-30T21:48:47.167Z,100751.87
2018-01-30T21:51:16.405Z,100756.16
2018-01-30T21:53:46.460Z,100748.78
2018-01-30T21:56:16.698Z,100740.29
2018-01-30T21:58:46.011Z,100728.86
2018-01-30T22:01:15.239Z,100724.40
2018-01-30T22:03:45.237Z,100725.22
2018-01-30T22:06:14.515Z,100715.80
2018-01-30T22:08:43.727Z,100702.87
2018-01-30T22:11:13.019Z,100706.23
2018-01-30T22:13:42.220Z,100705.84
2018-01-30T22:16:12.210Z,100702.99
2018-01-30T22:18:41.404Z,100695.07
2018-01-30T22:21:10.621Z,100688.97
2018-01-30T22:23:39.880Z,100675.91
2018-01-30T22:26:09.130Z,100666.63
2018-01-30T22:28:38.357Z,100658.42
2018-01-30T22:31:07.570Z,100651.81
2018-01-30T22:33:36.786Z,100652.61
2018-01-30T22:36:06.060Z,100652.83
2018-01-30T22:38:35.222Z,100649.61
2018-01-30T22:41:04.427Z,100644.35
2018-01-30T22:43:34.425Z,100648.52
2018-01-30T22:46:03.721Z,100647.56
